createdAt,value
2023-05-13T00:02:06.844Z,50.90
2023-05-13T00:04:36.515Z,50.90
2023-05-13T00:07:09.455Z,51.00
2023-05-13T00:09:37.233Z,50.90
2023-05-13T00:12:07.363Z,51.00
2023-05-13T00:14:37.160Z,51.00
2023-05-13T00:17:06.897Z,51.00
2023-05-13T00:19:36.683Z,50.80
2023-05-13T00:22:09.624Z,50.90
2023-05-13T00:24:36.418Z,50.90
2023-05-13T00:27:10.221Z,50.90
2023-05-13T00:29:37.204Z,50.90
2023-05-13T00:32:07.070Z,50.90
2023-05-13T00:34:40.180Z,51.00
2023-05-13T00:37:14.215Z,50.90
2023-05-13T00:39:44.006Z,50.90
2023-05-13T00:42:12.354Z,50.90
2023-05-13T00:44:39.045Z,50.90
2023-05-13T00:47:06.136Z,51.50
2023-05-13T00:49:39.221Z,51.00
2023-05-13T00:52:09.115Z,51.00
2023-05-13T00:54:36.085Z,51.00
2023-05-13T00:57:09.003Z,51.00
2023-05-13T00:59:35.772Z,50.90
2023-05-13T01:02:21.513Z,51.00
2023-05-13T01:05:07.233Z,51.00
2023-05-13T01:07:35.781Z,50.90
2023-05-13T01:10:15.955Z,51.00
2023-05-13T01:12:46.896Z,50.90
2023-05-13T01:15:17.495Z,50.80
2023-05-13T01:18:03.027Z,50.70
2023-05-13T01:20:35.876Z,50.70
2023-05-13T01:23:04.163Z,50.50
2023-05-13T01:25:30.977Z,50.00
2023-05-13T01:27:57.778Z,50.00
2023-05-13T01:30:24.699Z,50.00
2023-05-13T01:32:51.451Z,50.10
2023-05-13T01:35:18.524Z,50.20
2023-05-13T01:37:51.343Z,50.20
2023-05-13T01:40:31.809Z,50.20
2023-05-13T01:42:59.500Z,50.30
2023-05-13T01:45:30.022Z,50.20
2023-05-13T01:48:02.866Z,50.40
2023-05-13T01:50:29.663Z,50.40
2023-05-13T01:52:59.386Z,50.40
2023-05-13T01:55:29.162Z,50.50
2023-05-13T01:57:56.110Z,50.50
2023-05-13T02:00:23.057Z,50.60
2023-05-13T02:02:50.098Z,50.60
2023-05-13T02:05:17.389Z,50.70
2023-05-13T02:07:47.434Z,50.70
2023-05-13T02:10:20.706Z,50.70
2023-05-13T02:12:57.025Z,50.70
2023-05-13T02:15:23.738Z,50.70
2023-05-13T02:17:51.300Z,50.70
2023-05-13T02:20:18.179Z,50.70
2023-05-13T02:22:44.960Z,50.60
2023-05-13T02:25:11.639Z,50.60
2023-05-13T02:27:41.487Z,50.60
2023-05-13T02:30:08.468Z,50.60
2023-05-13T02:32:35.823Z,50.60
2023-05-13T02:35:05.860Z,51.20
2023-05-13T02:37:32.872Z,50.60
2023-05-13T02:39:59.603Z,50.60
2023-05-13T02:42:32.778Z,50.60
2023-05-13T02:45:00.024Z,50.60
2023-05-13T02:47:29.796Z,50.60
2023-05-13T02:49:56.602Z,50.60
2023-05-13T02:52:23.539Z,50.60
2023-05-13T02:54:50.426Z,50.60
2023-05-13T02:57:17.120Z,50.60
2023-05-13T02:59:44.024Z,50.60
2023-05-13T03:02:10.935Z,50.50
2023-05-13T03:04:37.682Z,50.60
2023-05-13T03:07:04.504Z,50.60
2023-05-13T03:09:35.208Z,50.60
2023-05-13T03:12:01.936Z,50.60
2023-05-13T03:14:28.621Z,50.50
2023-05-13T03:16:58.481Z,50.60
2023-05-13T03:19:25.179Z,50.50
2023-05-13T03:21:52.088Z,50.50
2023-05-13T03:24:18.873Z,50.50
2023-05-13T03:26:49.381Z,50.50
2023-05-13T03:29:16.152Z,50.50
2023-05-13T03:31:43.396Z,50.50
2023-05-13T03:34:10.212Z,50.50
2023-05-13T03:36:37.426Z,50.50
2023-05-13T03:39:04.611Z,50.50
2023-05-13T03:41:31.298Z,50.50
2023-05-13T03:43:57.957Z,50.40
2023-05-13T03:46:27.361Z,50.50
2023-05-13T03:48:55.757Z,50.50
2023-05-13T03:51:22.666Z,50.50
2023-05-13T03:53:49.354Z,50.50
2023-05-13T03:56:19.196Z,50.50
2023-05-13T03:58:45.893Z,50.50
2023-05-13T04:01:13.600Z,50.60
2023-05-13T04:03:41.283Z,50.70
2023-05-13T04:06:08.035Z,50.40
2023-05-13T04:08:34.745Z,50.10
2023-05-13T04:11:01.446Z,49.90
2023-05-13T04:13:33.153Z,49.70
2023-05-13T04:16:03.086Z,49.70
2023-05-13T04:18:30.185Z,49.80
2023-05-13T04:20:56.858Z,49.80
2023-05-13T04:23:26.649Z,49.90
2023-05-13T04:25:53.487Z,49.80
2023-05-13T04:28:23.193Z,49.90
2023-05-13T04:30:49.933Z,49.80
2023-05-13T04:33:23.285Z,49.90
2023-05-13T04:35:50.331Z,50.10
2023-05-13T04:38:23.351Z,50.10
2023-05-13T04:40:50.565Z,50.70
2023-05-13T04:43:23.514Z,50.10
2023-05-13T04:45:50.362Z,50.20
2023-05-13T04:48:17.223Z,50.20
2023-05-13T04:50:47.078Z,50.20
2023-05-13T04:53:17.177Z,50.30
2023-05-13T04:55:43.888Z,50.30
2023-05-13T04:58:13.833Z,50.30
2023-05-13T05:00:46.624Z,50.30
2023-05-13T05:03:13.445Z,50.40
2023-05-13T05:05:43.287Z,50.40
2023-05-13T05:08:09.993Z,50.40
2023-05-13T05:10:36.917Z,50.30
2023-05-13T05:13:03.722Z,50.40
2023-05-13T05:15:30.448Z,50.50
2023-05-13T05:17:57.319Z,50.50
2023-05-13T05:20:24.542Z,50.50
2023-05-13T05:22:51.251Z,50.60
2023-05-13T05:25:17.939Z,50.60
2023-05-13T05:27:44.681Z,50.50
2023-05-13T05:30:14.809Z,50.50
2023-05-13T05:32:41.543Z,50.50
2023-05-13T05:35:08.689Z,50.50
2023-05-13T05:37:35.521Z,50.60
2023-05-13T05:40:02.373Z,50.60
2023-05-13T05:42:35.206Z,50.80
2023-05-13T05:45:02.005Z,50.80
2023-05-13T05:47:31.825Z,50.80
2023-05-13T05:49:58.815Z,50.80
2023-05-13T05:52:28.652Z,51.00
2023-05-13T05:54:58.469Z,50.90
2023-05-13T05:57:25.337Z,50.90
2023-05-13T05:59:52.062Z,50.50
2023-05-13T06:02:18.847Z,50.50
2023-05-13T06:04:45.803Z,50.40
2023-05-13T06:07:13.451Z,50.40
2023-05-13T06:09:40.589Z,50.40
2023-05-13T06:12:13.604Z,50.50
2023-05-13T06:14:40.808Z,50.30
2023-05-13T06:17:07.532Z,50.20
2023-05-13T06:19:34.198Z,50.10
2023-05-13T06:22:03.229Z,50.20
2023-05-13T06:24:30.705Z,50.00
2023-05-13T06:26:57.408Z,50.00
2023-05-13T06:29:30.845Z,50.10
2023-05-13T06:32:04.014Z,49.80
2023-05-13T06:34:33.948Z,49.70
2023-05-13T06:37:03.998Z,49.70
2023-05-13T06:39:30.756Z,49.70
2023-05-13T06:42:03.906Z,49.40
2023-05-13T06:44:36.715Z,49.60
2023-05-13T06:47:05.118Z,49.70
2023-05-13T06:49:34.944Z,49.60
2023-05-13T06:52:08.905Z,49.70
2023-05-13T06:54:41.929Z,49.60
2023-05-13T06:57:08.654Z,49.50
2023-05-13T06:59:35.734Z,49.50
2023-05-13T07:02:05.566Z,49.40
2023-05-13T07:04:32.388Z,49.30
2023-05-13T07:07:02.125Z,49.20
2023-05-13T07:09:28.956Z,49.30
2023-05-13T07:12:01.941Z,49.40
2023-05-13T07:14:31.773Z,49.30
2023-05-13T07:17:02.350Z,49.50
2023-05-13T07:19:29.363Z,49.30
2023-05-13T07:22:02.779Z,49.20
2023-05-13T07:24:29.657Z,49.10
2023-05-13T07:26:56.382Z,49.00
2023-05-13T07:29:23.247Z,48.90
2023-05-13T07:31:50.389Z,48.70
2023-05-13T07:34:20.155Z,48.70
2023-05-13T07:36:46.964Z,48.50
2023-05-13T07:39:13.757Z,48.20
2023-05-13T07:41:40.529Z,48.40
2023-05-13T07:44:11.778Z,48.40
2023-05-13T07:46:41.692Z,48.50
2023-05-13T07:49:09.234Z,48.60
2023-05-13T07:51:40.285Z,48.60
2023-05-13T07:54:07.292Z,48.60
2023-05-13T07:56:34.151Z,48.10
2023-05-13T07:59:00.994Z,48.40
2023-05-13T08:01:30.974Z,48.50
2023-05-13T08:03:57.864Z,48.40
2023-05-13T08:06:24.674Z,48.50
2023-05-13T08:08:54.530Z,49.10
2023-05-13T08:11:27.713Z,48.60
2023-05-13T08:14:00.722Z,48.50
2023-05-13T08:16:27.714Z,48.40
2023-05-13T08:18:57.707Z,48.30
2023-05-13T08:21:24.541Z,48.50
2023-05-13T08:23:52.180Z,48.40
2023-05-13T08:26:18.901Z,48.50
2023-05-13T08:28:46.698Z,48.70
2023-05-13T08:31:13.859Z,48.50
2023-05-13T08:33:48.656Z,48.60
2023-05-13T08:36:22.952Z,48.50
2023-05-13T08:38:56.005Z,48.50
2023-05-13T08:41:23.053Z,48.60
2023-05-13T08:43:50.020Z,48.60
2023-05-13T08:46:23.037Z,48.70
2023-05-13T08:48:49.920Z,48.70
2023-05-13T08:51:17.787Z,48.70
2023-05-13T08:53:52.032Z,48.60
2023-05-13T08:56:28.383Z,48.50
2023-05-13T08:58:58.201Z,48.60
2023-05-13T09:01:25.113Z,48.20
2023-05-13T09:03:59.857Z,48.50
2023-05-13T09:06:26.708Z,48.50
2023-05-13T09:08:56.556Z,48.50
2023-05-13T09:11:26.538Z,48.20
2023-05-13T09:13:59.837Z,48.70
2023-05-13T09:16:32.890Z,48.60
2023-05-13T09:19:01.559Z,48.50
2023-05-13T09:21:31.786Z,48.60
2023-05-13T09:24:10.327Z,48.60
2023-05-13T09:26:38.216Z,48.60
2023-05-13T09:29:18.068Z,48.60
2023-05-13T09:31:45.521Z,48.80
2023-05-13T09:34:14.927Z,48.80
2023-05-13T09:36:42.214Z,49.50
2023-05-13T09:39:10.717Z,48.80
2023-05-13T09:41:43.843Z,49.00
2023-05-13T09:44:12.749Z,48.80
2023-05-13T09:46:39.560Z,48.90
2023-05-13T09:49:08.665Z,48.90
2023-05-13T09:51:35.506Z,48.90
2023-05-13T09:54:06.509Z,48.90
2023-05-13T09:56:34.968Z,48.90
2023-05-13T09:59:02.569Z,49.00
2023-05-13T10:01:29.604Z,48.80
2023-05-13T10:03:59.669Z,48.80
2023-05-13T10:06:29.400Z,48.90
2023-05-13T10:08:56.904Z,49.00
2023-05-13T10:11:26.221Z,48.70
2023-05-13T10:13:55.809Z,48.80
2023-05-13T10:16:23.660Z,48.70
2023-05-13T10:19:00.484Z,48.60
2023-05-13T10:21:27.698Z,48.60
2023-05-13T10:23:54.540Z,48.40
2023-05-13T10:26:22.120Z,48.40
2023-05-13T10:28:49.720Z,48.30
2023-05-13T10:31:17.648Z,48.40
2023-05-13T10:33:45.101Z,48.40
2023-05-13T10:36:12.055Z,48.60
2023-05-13T10:38:48.412Z,48.50
2023-05-13T10:41:25.253Z,48.60
2023-05-13T10:43:58.699Z,48.40
2023-05-13T10:46:25.680Z,48.50
2023-05-13T10:48:55.883Z,48.60
2023-05-13T10:51:27.743Z,48.60
2023-05-13T10:53:55.135Z,48.80
2023-05-13T10:56:24.368Z,48.80
2023-05-13T10:59:01.557Z,48.80
2023-05-13T11:01:31.773Z,48.50
2023-05-13T11:04:06.139Z,48.60
2023-05-13T11:06:39.837Z,48.70
2023-05-13T11:09:16.433Z,48.60
2023-05-13T11:11:46.360Z,48.70
2023-05-13T11:14:23.027Z,48.70
2023-05-13T11:16:54.387Z,48.80
2023-05-13T11:19:22.386Z,48.40
2023-05-13T11:21:55.745Z,48.30
2023-05-13T11:24:22.752Z,48.30
2023-05-13T11:26:52.227Z,48.10
2023-05-13T11:29:32.292Z,47.80
2023-05-13T11:32:01.263Z,48.00
2023-05-13T11:34:28.516Z,47.40
2023-05-13T11:37:07.360Z,48.00
2023-05-13T11:39:34.391Z,48.10
2023-05-13T11:42:05.242Z,48.00
2023-05-13T11:44:36.147Z,47.90
2023-05-13T11:47:06.047Z,48.10
2023-05-13T11:49:40.463Z,48.00
2023-05-13T11:52:08.929Z,48.70
2023-05-13T11:54:47.696Z,48.10
2023-05-13T11:57:22.959Z,48.10
2023-05-13T11:59:51.646Z,47.80
2023-05-13T12:02:25.800Z,47.90
2023-05-13T12:04:53.438Z,47.60
2023-05-13T12:07:26.888Z,48.00
2023-05-13T12:09:54.436Z,47.50
2023-05-13T12:12:21.489Z,47.40
2023-05-13T12:14:53.017Z,47.40
2023-05-13T12:17:22.082Z,47.40
2023-05-13T12:20:07.441Z,47.60
2023-05-13T12:22:34.694Z,47.50
2023-05-13T12:25:08.198Z,47.30
2023-05-13T12:27:35.108Z,47.70
2023-05-13T12:30:02.876Z,47.70
2023-05-13T12:32:29.747Z,47.80
2023-05-13T12:34:57.163Z,47.90
2023-05-13T12:37:24.680Z,47.70
2023-05-13T12:39:51.795Z,48.00
2023-05-13T12:42:24.877Z,47.70
2023-05-13T12:44:51.758Z,48.00
2023-05-13T12:47:20.317Z,47.70
2023-05-13T12:49:55.425Z,47.90
2023-05-13T12:52:22.383Z,48.60
2023-05-13T12:54:49.214Z,48.00
2023-05-13T12:57:19.812Z,48.00
2023-05-13T12:59:46.956Z,48.00
2023-05-13T13:02:13.794Z,48.00
2023-05-13T13:04:40.893Z,48.00
2023-05-13T13:07:15.371Z,48.10
2023-05-13T13:09:42.312Z,48.00
2023-05-13T13:12:09.116Z,48.20
2023-05-13T13:14:38.451Z,48.20
2023-05-13T13:17:05.256Z,48.10
2023-05-13T13:19:32.087Z,48.00
2023-05-13T13:22:00.318Z,48.10
2023-05-13T13:24:27.157Z,48.10
2023-05-13T13:26:54.747Z,48.50
2023-05-13T13:29:22.499Z,48.30
2023-05-13T13:31:53.387Z,48.40
2023-05-13T13:34:25.603Z,48.30
2023-05-13T13:36:52.520Z,48.20
2023-05-13T13:39:26.776Z,48.10
2023-05-13T13:41:53.675Z,48.30
2023-05-13T13:44:20.532Z,47.70
2023-05-13T13:46:53.093Z,47.80
2023-05-13T13:49:24.026Z,47.80
2023-05-13T13:51:52.156Z,47.90
2023-05-13T13:54:28.206Z,47.80
2023-05-13T13:56:55.470Z,48.10
2023-05-13T13:59:27.031Z,48.20
2023-05-13T14:01:54.235Z,48.20
2023-05-13T14:04:31.294Z,48.00
2023-05-13T14:06:58.152Z,48.10
2023-05-13T14:09:24.974Z,48.10
2023-05-13T14:11:52.108Z,48.20
2023-05-13T14:14:19.139Z,49.10
2023-05-13T14:16:46.679Z,47.80
2023-05-13T14:19:13.836Z,48.40
2023-05-13T14:21:40.768Z,48.50
2023-05-13T14:24:09.034Z,48.50
2023-05-13T14:26:40.354Z,48.20
2023-05-13T14:29:07.197Z,48.50
2023-05-13T14:31:44.479Z,48.40
2023-05-13T14:34:16.657Z,48.60
2023-05-13T14:36:44.412Z,48.40
2023-05-13T14:39:12.328Z,48.30
2023-05-13T14:41:46.958Z,48.50
2023-05-13T14:44:14.127Z,48.60
2023-05-13T14:46:41.807Z,49.00
2023-05-13T14:49:08.697Z,49.10
2023-05-13T14:51:35.672Z,49.50
2023-05-13T14:54:06.427Z,50.10
2023-05-13T14:56:33.210Z,49.50
2023-05-13T14:59:01.796Z,50.00
2023-05-13T15:01:32.792Z,50.40
2023-05-13T15:04:00.499Z,50.40
2023-05-13T15:06:27.368Z,51.10
2023-05-13T15:08:54.178Z,51.40
2023-05-13T15:11:21.083Z,52.40
2023-05-13T15:13:51.542Z,52.80
2023-05-13T15:16:18.382Z,52.30
2023-05-13T15:18:45.253Z,52.50
2023-05-13T15:21:12.116Z,52.50
2023-05-13T15:23:39.896Z,51.70
2023-05-13T15:26:06.825Z,51.00
2023-05-13T15:28:34.784Z,51.10
2023-05-13T15:31:01.839Z,50.90
2023-05-13T15:33:31.172Z,52.00
2023-05-13T15:35:58.723Z,52.10
2023-05-13T15:38:29.454Z,52.60
2023-05-13T15:40:58.916Z,53.70
2023-05-13T15:43:29.657Z,53.10
2023-05-13T15:46:05.061Z,53.40
2023-05-13T15:48:32.029Z,53.60
2023-05-13T15:50:58.846Z,54.00
2023-05-13T15:53:25.710Z,53.90
2023-05-13T15:55:56.252Z,54.20
2023-05-13T15:58:24.329Z,53.60
2023-05-13T16:00:51.843Z,54.30
2023-05-13T16:03:22.840Z,54.50
2023-05-13T16:05:55.803Z,54.40
2023-05-13T16:08:30.754Z,54.70
2023-05-13T16:10:57.584Z,54.80
2023-05-13T16:13:24.478Z,55.20
2023-05-13T16:15:52.555Z,55.30
2023-05-13T16:18:22.093Z,55.10
2023-05-13T16:20:55.272Z,55.30
2023-05-13T16:23:24.358Z,56.00
2023-05-13T16:25:51.646Z,54.20
2023-05-13T16:28:19.465Z,54.40
2023-05-13T16:31:06.654Z,54.30
2023-05-13T16:33:35.222Z,54.60
2023-05-13T16:36:02.088Z,54.80
2023-05-13T16:38:55.040Z,55.40
2023-05-13T16:41:25.610Z,55.20
2023-05-13T16:43:55.360Z,55.80
2023-05-13T16:46:25.518Z,55.60
2023-05-13T16:48:52.403Z,55.10
2023-05-13T16:51:19.321Z,55.40
2023-05-13T16:53:46.107Z,54.90
2023-05-13T16:56:12.884Z,54.50
2023-05-13T16:58:39.646Z,54.20
2023-05-13T17:01:06.623Z,53.90
2023-05-13T17:03:33.581Z,54.20
2023-05-13T17:06:00.494Z,54.20
2023-05-13T17:08:28.315Z,54.50
2023-05-13T17:10:55.087Z,54.80
2023-05-13T17:13:22.281Z,55.10
2023-05-13T17:15:50.898Z,55.30
2023-05-13T17:18:17.940Z,55.20
2023-05-13T17:20:46.296Z,55.60
2023-05-13T17:23:13.565Z,55.60
2023-05-13T17:25:41.128Z,55.60
2023-05-13T17:28:11.641Z,55.90
2023-05-13T17:30:38.566Z,56.00
2023-05-13T17:33:05.575Z,56.80
2023-05-13T17:35:32.381Z,56.30
2023-05-13T17:37:59.379Z,56.00
2023-05-13T17:40:26.260Z,57.30
2023-05-13T17:42:53.243Z,56.50
2023-05-13T17:45:21.934Z,56.50
2023-05-13T17:47:49.385Z,56.70
2023-05-13T17:50:18.342Z,56.60
2023-05-13T17:52:46.776Z,56.60
2023-05-13T17:55:13.563Z,56.60
2023-05-13T17:57:42.071Z,56.70
2023-05-13T18:00:09.098Z,56.70
2023-05-13T18:02:40.517Z,56.70
2023-05-13T18:05:07.778Z,56.80
2023-05-13T18:07:34.579Z,57.00
2023-05-13T18:10:01.529Z,56.90
2023-05-13T18:12:32.664Z,56.80
2023-05-13T18:14:59.496Z,57.30
2023-05-13T18:17:28.793Z,57.70
2023-05-13T18:19:55.738Z,57.40
2023-05-13T18:22:22.531Z,57.50
2023-05-13T18:24:49.456Z,56.70
2023-05-13T18:27:16.313Z,56.70
2023-05-13T18:29:43.191Z,56.30
2023-05-13T18:32:10.002Z,56.10
2023-05-13T18:34:37.135Z,55.40
2023-05-13T18:37:04.020Z,55.20
2023-05-13T18:39:34.372Z,55.10
2023-05-13T18:42:01.430Z,55.40
2023-05-13T18:44:28.284Z,55.70
2023-05-13T18:46:55.057Z,55.80
2023-05-13T18:49:21.894Z,55.90
2023-05-13T18:51:48.842Z,56.20
2023-05-13T18:54:15.630Z,56.30
2023-05-13T18:56:42.707Z,56.60
2023-05-13T18:59:09.554Z,56.80
2023-05-13T19:01:36.804Z,56.80
2023-05-13T19:04:03.877Z,57.00
2023-05-13T19:06:30.806Z,56.80
2023-05-13T19:08:57.700Z,57.00
2023-05-13T19:11:24.513Z,57.20
2023-05-13T19:13:51.422Z,57.70
2023-05-13T19:16:19.250Z,57.40
2023-05-13T19:18:46.175Z,57.30
2023-05-13T19:21:12.998Z,57.30
2023-05-13T19:23:39.814Z,57.40
2023-05-13T19:26:06.709Z,58.00
2023-05-13T19:28:33.962Z,57.30
2023-05-13T19:31:00.839Z,57.30
2023-05-13T19:33:27.670Z,57.40
2023-05-13T19:35:56.616Z,57.60
2023-05-13T19:38:23.538Z,57.70
2023-05-13T19:40:52.368Z,57.70
2023-05-13T19:43:23.853Z,57.80
2023-05-13T19:45:51.356Z,58.20
2023-05-13T19:48:19.225Z,58.00
2023-05-13T19:50:46.069Z,58.20
2023-05-13T19:53:13.703Z,58.00
2023-05-13T19:55:40.681Z,58.10
2023-05-13T19:58:07.887Z,58.10
2023-05-13T20:00:34.964Z,58.30
2023-05-13T20:03:02.133Z,58.30
2023-05-13T20:05:29.198Z,58.20
2023-05-13T20:07:56.107Z,58.40
2023-05-13T20:10:23.154Z,58.60
2023-05-13T20:12:50.158Z,58.30
2023-05-13T20:15:18.584Z,58.40
2023-05-13T20:17:45.695Z,58.60
2023-05-13T20:20:12.828Z,58.40
2023-05-13T20:22:39.697Z,58.50
2023-05-13T20:25:06.976Z,58.70
2023-05-13T20:27:33.818Z,58.60
2023-05-13T20:30:01.290Z,58.60
2023-05-13T20:32:28.156Z,58.60
2023-05-13T20:34:55.046Z,58.70
2023-05-13T20:37:23.936Z,58.70
2023-05-13T20:39:51.462Z,58.60
2023-05-13T20:42:18.394Z,58.80
2023-05-13T20:44:46.486Z,58.60
2023-05-13T20:47:13.596Z,58.90
2023-05-13T20:49:43.885Z,58.90
2023-05-13T20:52:11.275Z,58.80
2023-05-13T20:54:38.515Z,58.70
2023-05-13T20:57:05.672Z,59.10
2023-05-13T20:59:33.433Z,59.40
2023-05-13T21:02:00.241Z,58.80
2023-05-13T21:04:27.273Z,58.60
2023-05-13T21:06:54.170Z,58.60
2023-05-13T21:09:21.051Z,58.60
2023-05-13T21:11:47.798Z,58.90
2023-05-13T21:14:14.652Z,58.60
2023-05-13T21:16:41.573Z,58.20
2023-05-13T21:19:08.503Z,57.60
2023-05-13T21:21:35.453Z,57.10
2023-05-13T21:24:02.283Z,57.00
2023-05-13T21:26:29.069Z,56.70
2023-05-13T21:28:55.911Z,56.80
2023-05-13T21:31:22.787Z,56.50
2023-05-13T21:33:49.598Z,56.50
2023-05-13T21:36:16.439Z,56.50
2023-05-13T21:38:43.296Z,56.80
2023-05-13T21:41:10.819Z,56.80
2023-05-13T21:43:37.629Z,57.20
2023-05-13T21:46:06.663Z,57.20
2023-05-13T21:48:33.516Z,57.20
2023-05-13T21:51:00.415Z,57.30
2023-05-13T21:53:27.773Z,57.50
2023-05-13T21:55:56.636Z,57.50
2023-05-13T21:58:23.746Z,57.70
2023-05-13T22:00:50.730Z,57.50
2023-05-13T22:03:17.548Z,57.90
2023-05-13T22:05:44.415Z,57.60
2023-05-13T22:08:11.229Z,57.80
2023-05-13T22:10:38.186Z,58.30
2023-05-13T22:13:05.129Z,57.80
2023-05-13T22:15:31.976Z,57.90
2023-05-13T22:17:58.860Z,58.30
2023-05-13T22:20:26.065Z,57.70
2023-05-13T22:22:53.004Z,57.80
2023-05-13T22:25:19.883Z,57.70
2023-05-13T22:27:47.202Z,57.70
2023-05-13T22:30:14.136Z,57.70
2023-05-13T22:32:41.102Z,57.80
2023-05-13T22:35:08.153Z,58.00
2023-05-13T22:37:34.906Z,57.80
2023-05-13T22:40:01.655Z,57.70
2023-05-13T22:42:28.499Z,57.90
2023-05-13T22:44:55.376Z,57.80
2023-05-13T22:47:22.192Z,57.70
2023-05-13T22:49:49.010Z,57.90
2023-05-13T22:52:15.805Z,57.70
2023-05-13T22:54:42.655Z,57.90
2023-05-13T22:57:09.459Z,57.80
2023-05-13T22:59:36.275Z,57.70
2023-05-13T23:02:03.165Z,57.70
2023-05-13T23:04:30.088Z,57.90
2023-05-13T23:06:56.920Z,57.70
2023-05-13T23:09:23.690Z,57.90
2023-05-13T23:11:50.517Z,57.80
2023-05-13T23:14:17.267Z,57.80
2023-05-13T23:16:44.170Z,57.90
2023-05-13T23:19:11.131Z,57.70
2023-05-13T23:21:37.931Z,57.80
2023-05-13T23:24:04.793Z,57.80
2023-05-13T23:26:31.766Z,57.90
2023-05-13T23:28:58.646Z,57.80
2023-05-13T23:31:25.512Z,58.40
2023-05-13T23:33:52.450Z,57.90
2023-05-13T23:36:19.284Z,58.00
2023-05-13T23:38:46.324Z,57.90
2023-05-13T23:41:13.149Z,57.90
2023-05-13T23:43:40.047Z,57.90
2023-05-13T23:46:06.885Z,57.80
2023-05-13T23:48:33.770Z,57.90
2023-05-13T23:51:00.608Z,57.80
2023-05-13T23:53:27.456Z,58.00
2023-05-13T23:55:54.249Z,57.70
2023-05-13T23:58:21.095Z,58.50
